Time;durP1;ratioP1;P1;durP2;ratioP2;P2;SDS_P1;SDS_P2;PMS_P1;PMS_P2;Temp;Humidity;BMP_temperature;BMP_pressure;BME280_temperature;BME280_humidity;BME280_pressure;Samples;Min_cycle;Max_cycle;Signal;HPM_P1;HPM_P2
2022/02/02 00:02:15;;;;;;;6.93;2.67;;;7.70;99.90;;;;;;4974084;28;20062;-78
2022/02/02 00:04:47;;;;;;;4.43;2.38;;;7.70;99.90;;;;;;4977469;28;20095;-77
2022/02/02 00:09:55;;;;;;;5.07;2.17;;;7.80;99.90;;;;;;4980380;28;20058;-78
2022/02/02 00:12:44;;;;;;;3.55;2.17;;;7.80;99.90;;;;;;4978372;28;20031;-79
2022/02/02 00:20:31;;;;;;;5.68;1.55;;;7.90;99.90;;;;;;4977668;28;20422;-78
2022/02/02 00:23:01;;;;;;;3.80;1.83;;;7.90;99.90;;;;;;5001286;28;20027;-78
2022/02/02 00:25:34;;;;;;;4.53;1.77;;;7.90;99.90;;;;;;4992451;28;20022;-80
2022/02/02 00:28:02;;;;;;;3.03;2.10;;;7.80;99.90;;;;;;4988116;28;20452;-78
2022/02/02 00:30:33;;;;;;;4.05;1.30;;;7.80;99.90;;;;;;4982217;28;20023;-77
2022/02/02 00:33:09;;;;;;;6.45;1.70;;;7.80;99.90;;;;;;4985180;28;20035;-79
2022/02/02 00:35:40;;;;;;;3.38;1.08;;;7.80;99.90;;;;;;4984569;28;20404;-80
2022/02/02 00:38:06;;;;;;;;;;;7.70;99.90;;;;;;4984374;28;20046;-77
2022/02/02 00:40:31;;;;;;;2.83;1.40;;;7.60;99.90;;;;;;4979893;28;20293;-78
2022/02/02 00:42:57;;;;;;;3.80;1.40;;;7.70;99.90;;;;;;4981504;28;20045;-80
2022/02/02 00:45:30;;;;;;;3.70;1.38;;;7.80;99.90;;;;;;4981238;28;20107;-77
2022/02/02 00:47:55;;;;;;;1.42;1.00;;;7.80;99.90;;;;;;4980241;28;20035;-81
2022/02/02 00:50:21;;;;;;;2.03;1.60;;;7.80;99.90;;;;;;4980584;28;20098;-80
2022/02/02 00:52:51;;;;;;;3.03;1.35;;;7.80;99.90;;;;;;4980173;28;20047;-79
2022/02/02 00:55:17;;;;;;;2.05;1.05;;;7.90;99.90;;;;;;4986455;28;20497;-79
2022/02/02 00:57:43;;;;;;;3.58;1.38;;;7.90;99.90;;;;;;4988732;28;20023;-82
2022/02/02 01:00:09;;;;;;;2.53;1.40;;;7.90;99.90;;;;;;4984981;28;20027;-78
2022/02/02 01:02:35;;;;;;;1.20;1.10;;;7.90;99.90;;;;;;4981812;28;20107;-79
2022/02/02 01:05:01;;;;;;;3.47;1.42;;;7.90;99.90;;;;;;4983393;28;20027;-79
2022/02/02 01:10:16;;;;;;;2.90;1.50;;;7.90;99.90;;;;;;4981834;28;20031;-78
2022/02/02 01:20:58;;;;;;;2.85;1.33;;;7.90;99.90;;;;;;4982845;28;20027;-78
2022/02/02 01:28:39;;;;;;;2.65;1.08;;;8.00;99.90;;;;;;4975912;28;20033;-78
2022/02/02 01:31:05;;;;;;;1.00;1.00;;;8.00;99.90;;;;;;4980608;28;20508;-79
2022/02/02 01:33:31;;;;;;;4.55;1.30;;;8.10;99.90;;;;;;4979736;28;20081;-80
2022/02/02 01:35:58;;;;;;;3.17;1.20;;;8.10;99.90;;;;;;4989961;28;20091;-82
2022/02/02 01:38:27;;;;;;;4.93;1.50;;;8.20;99.90;;;;;;5010281;28;20022;-80
2022/02/02 01:41:01;;;;;;;5.22;1.63;;;8.10;99.90;;;;;;5001026;28;20111;-79
2022/02/02 01:43:32;;;;;;;5.13;1.50;;;8.10;99.90;;;;;;4985630;28;20050;-79
2022/02/02 01:46:02;;;;;;;5.50;1.80;;;8.10;99.90;;;;;;4985037;28;20038;-79
2022/02/02 01:51:16;;;;;;;4.75;1.42;;;8.00;99.90;;;;;;4985546;28;20027;-79
2022/02/02 01:54:17;;;;;;;3.22;1.10;;;8.00;99.90;;;;;;4972700;28;20019;-79
2022/02/02 01:56:29;;;;;;;4.85;1.27;;;8.00;99.90;;;;;;4975926;28;20415;-79
2022/02/02 01:59:19;;;;;;;2.63;1.15;;;8.00;99.90;;;;;;4979983;28;20054;-78
2022/02/02 02:01:44;;;;;;;4.88;1.48;;;8.00;99.90;;;;;;4980579;28;20042;-79
2022/02/02 02:04:10;;;;;;;4.32;2.30;;;8.10;99.90;;;;;;4982509;28;20484;-79
2022/02/02 02:06:35;;;;;;;6.00;1.55;;;8.10;99.90;;;;;;4992973;28;20107;-80
2022/02/02 02:09:01;;;;;;;5.93;1.95;;;8.10;99.90;;;;;;4986641;28;20114;-80
2022/02/02 02:11:27;;;;;;;4.80;2.03;;;8.10;99.90;;;;;;4986892;28;20022;-79
2022/02/02 02:16:27;;;;;;;4.35;2.00;;;8.20;99.90;;;;;;4978296;28;20027;-79
2022/02/02 02:18:53;;;;;;;4.35;1.90;;;8.20;99.90;;;;;;4977402;28;20038;-79
2022/02/02 02:21:19;;;;;;;5.15;2.55;;;8.20;99.90;;;;;;4977850;28;20030;-79
2022/02/02 02:23:47;;;;;;;7.15;2.33;;;8.10;99.90;;;;;;4977972;28;20027;-79
2022/02/02 02:26:20;;;;;;;3.65;1.40;;;8.10;99.90;;;;;;4978043;28;20054;-79
2022/02/02 02:31:26;;;;;;;1.67;1.40;;;7.30;99.90;;;;;;4979925;28;20023;-79
2022/02/02 02:55:49;;;;;;;9.55;3.55;;;7.30;99.90;;;;;;4996079;28;20057;-79
2022/02/02 03:00:49;;;;;;;11.10;3.47;;;7.60;99.90;;;;;;4976704;28;20026;-78
2022/02/02 03:30:38;;;;;;;5.82;2.17;;;8.00;99.90;;;;;;4989239;28;20033;-79
2022/02/02 03:54:57;;;;;;;8.35;2.50;;;8.10;99.90;;;;;;4997982;28;20677;-77
2022/02/02 04:00:19;;;;;;;7.70;2.55;;;8.10;99.90;;;;;;4994323;28;20035;-79
2022/02/02 04:08:15;;;;;;;11.57;2.47;;;8.00;99.90;;;;;;4983315;28;20053;-78
2022/02/02 04:10:40;;;;;;;11.63;2.88;;;8.00;99.90;;;;;;4990041;28;20046;-78
2022/02/02 04:58:59;;;;;;;15.07;2.50;;;8.10;99.90;;;;;;4989052;28;20070;-81
2022/02/02 05:07:06;;;;;;;6.38;1.88;;;8.00;99.90;;;;;;4984965;28;20053;-80
2022/02/02 05:10:14;;;;;;;7.68;2.28;;;7.90;99.90;;;;;;4979849;28;20027;-79
2022/02/02 05:18:00;;;;;;;8.95;2.67;;;7.80;99.90;;;;;;4982471;28;20023;-80
2022/02/02 05:42:30;;;;;;;13.18;5.72;;;7.80;99.90;;;;;;4986583;28;20558;-79
2022/02/02 05:52:55;;;;;;;8.85;2.30;;;7.70;99.90;;;;;;4978323;28;20045;-74
2022/02/02 05:55:20;;;;;;;9.80;2.63;;;7.60;99.90;;;;;;4971999;28;20019;-75
2022/02/02 05:57:47;;;;;;;9.27;2.40;;;7.60;99.90;;;;;;4977557;28;20038;-74
2022/02/02 06:00:14;;;;;;;8.18;2.45;;;7.60;99.90;;;;;;4987205;28;20023;-74
2022/02/02 06:02:44;;;;;;;10.48;2.58;;;7.60;99.90;;;;;;4986615;28;20037;-75
2022/02/02 06:05:10;;;;;;;9.60;2.60;;;7.70;99.90;;;;;;4978728;28;20035;-76
2022/02/02 06:07:39;;;;;;;11.65;3.17;;;7.70;99.90;;;;;;4976569;28;20123;-76
2022/02/02 06:10:07;;;;;;;6.55;2.60;;;7.70;99.90;;;;;;4974510;28;20126;-75
2022/02/02 06:12:33;;;;;;;15.57;4.90;;;7.70;99.90;;;;;;4978012;28;20026;-75
2022/02/02 06:15:00;;;;;;;12.93;2.53;;;7.80;99.90;;;;;;4974825;28;20027;-76
2022/02/02 06:17:29;;;;;;;9.02;2.83;;;7.90;99.90;;;;;;4976934;28;20023;-75
2022/02/02 06:19:58;;;;;;;13.85;3.88;;;7.90;99.90;;;;;;4975962;28;20019;-75
2022/02/02 06:22:32;;;;;;;7.18;2.45;;;8.00;99.90;;;;;;4975766;28;20426;-75
2022/02/02 06:25:21;;;;;;;5.30;2.03;;;8.10;99.90;;;;;;4976194;28;20031;-76
2022/02/02 06:27:55;;;;;;;16.63;2.72;;;8.10;99.90;;;;;;4979555;28;20043;-76
2022/02/02 06:30:21;;;;;;;9.45;2.50;;;8.10;99.90;;;;;;4977065;28;20034;-76
2022/02/02 06:32:52;;;;;;;8.38;2.42;;;8.10;99.90;;;;;;4977976;28;20344;-75
2022/02/02 06:35:19;;;;;;;9.80;1.90;;;8.10;99.90;;;;;;4977675;28;20023;-74
2022/02/02 06:37:46;;;;;;;18.27;2.85;;;8.10;99.90;;;;;;4975412;28;20045;-75
2022/02/02 06:40:13;;;;;;;12.07;3.03;;;8.10;99.90;;;;;;4975187;28;20030;-75
2022/02/02 06:42:40;;;;;;;9.63;2.80;;;8.10;99.90;;;;;;4974407;28;20094;-75
2022/02/02 06:45:07;;;;;;;13.63;3.13;;;8.10;99.90;;;;;;4975609;28;20111;-75
2022/02/02 06:47:35;;;;;;;10.00;2.45;;;8.10;99.90;;;;;;4974918;28;20038;-76
2022/02/02 06:50:12;;;;;;;10.07;2.95;;;8.00;99.90;;;;;;4975286;28;20109;-76
2022/02/02 06:52:50;;;;;;;14.25;3.33;;;8.10;99.90;;;;;;4979737;28;20034;-76
2022/02/02 06:55:36;;;;;;;13.15;3.30;;;8.10;99.90;;;;;;4985973;28;20926;-75
2022/02/02 06:58:28;;;;;;;17.10;3.35;;;8.00;99.90;;;;;;4983546;28;20034;-75
2022/02/02 07:01:47;;;;;;;10.63;3.28;;;8.00;99.90;;;;;;4986958;28;20027;-75
2022/02/02 07:04:12;;;;;;;8.70;2.67;;;8.00;99.90;;;;;;4976564;28;20027;-76
2022/02/02 07:06:49;;;;;;;11.02;2.72;;;7.90;99.90;;;;;;4978619;28;20030;-74
2022/02/02 07:09:38;;;;;;;10.90;3.75;;;8.00;99.90;;;;;;4977736;28;20110;-75
2022/02/02 07:12:19;;;;;;;11.07;3.60;;;8.00;99.90;;;;;;4972874;28;20026;-75
2022/02/02 07:15:11;;;;;;;10.73;3.53;;;7.90;99.90;;;;;;4978006;28;20023;-74
2022/02/02 07:17:55;;;;;;;11.00;3.60;;;7.90;99.90;;;;;;4984384;28;20160;-75
2022/02/02 07:23:33;;;;;;;9.38;2.78;;;7.90;99.90;;;;;;4981929;28;20041;-75
2022/02/02 07:26:18;;;;;;;14.50;4.97;;;7.90;99.90;;;;;;4983420;28;20449;-77
2022/02/02 07:28:57;;;;;;;8.90;2.67;;;7.80;99.90;;;;;;4971115;28;20046;-76
2022/02/02 07:31:45;;;;;;;7.90;2.83;;;7.90;99.90;;;;;;4973308;28;20027;-76
2022/02/02 07:34:27;;;;;;;19.08;4.47;;;7.90;99.90;;;;;;4975249;28;20022;-76
2022/02/02 07:37:00;;;;;;;7.25;2.15;;;7.90;99.90;;;;;;4971057;28;20038;-76
2022/02/02 07:39:26;;;;;;;9.25;2.40;;;7.90;99.90;;;;;;4973991;28;20487;-76
2022/02/02 07:41:58;;;;;;;9.00;2.50;;;8.00;99.90;;;;;;4986381;28;20029;-75
2022/02/02 07:44:27;;;;;;;20.30;3.53;;;8.00;99.90;;;;;;4998157;28;20091;-74
2022/02/02 07:46:55;;;;;;;12.45;3.22;;;8.00;99.90;;;;;;4997124;28;20086;-74
2022/02/02 07:49:29;;;;;;;9.32;3.38;;;7.90;99.90;;;;;;5002480;28;20031;-74
2022/02/02 07:51:55;;;;;;;14.45;3.47;;;8.00;99.90;;;;;;4991679;28;20082;-75
2022/02/02 07:54:27;;;;;;;9.05;3.00;;;7.90;99.90;;;;;;4975354;28;20581;-75
2022/02/02 07:56:53;;;;;;;9.90;4.05;;;7.90;99.90;;;;;;4977047;28;20069;-75
2022/02/02 07:59:24;;;;;;;12.43;3.22;;;7.80;99.90;;;;;;4982042;28;20027;-75
2022/02/02 08:01:51;;;;;;;8.88;4.05;;;7.70;99.90;;;;;;4976030;28;20364;-74
2022/02/02 08:04:19;;;;;;;15.63;3.92;;;7.70;99.90;;;;;;4973480;28;20027;-76
2022/02/02 08:06:51;;;;;;;12.50;3.72;;;7.80;99.90;;;;;;4974008;28;20015;-76
2022/02/02 08:09:29;;;;;;;17.80;5.47;;;7.80;99.90;;;;;;4978309;28;20398;-76
2022/02/02 08:11:55;;;;;;;12.48;4.80;;;7.80;99.90;;;;;;4975283;28;20042;-76
2022/02/02 08:14:22;;;;;;;9.95;2.70;;;7.80;99.90;;;;;;4974571;28;20447;-76
2022/02/02 08:16:48;;;;;;;14.55;3.72;;;7.90;99.90;;;;;;4972017;28;20097;-75
2022/02/02 08:19:16;;;;;;;12.85;3.45;;;8.00;99.90;;;;;;4971372;28;20031;-76
2022/02/02 08:21:42;;;;;;;13.63;3.45;;;8.00;99.90;;;;;;4969851;28;20042;-75
2022/02/02 08:24:09;;;;;;;9.55;2.60;;;7.90;99.90;;;;;;4972544;28;20041;-76
2022/02/02 08:26:35;;;;;;;12.45;4.10;;;8.00;99.90;;;;;;4973843;28;20027;-75
2022/02/02 08:29:01;;;;;;;11.75;3.47;;;8.00;99.90;;;;;;4971761;28;20022;-75
2022/02/02 08:31:27;;;;;;;11.88;2.58;;;8.00;99.90;;;;;;4973576;28;20030;-76
2022/02/02 08:33:57;;;;;;;4.10;1.85;;;7.90;99.90;;;;;;4967879;28;20419;-78
2022/02/02 08:36:23;;;;;;;10.32;2.80;;;7.90;99.90;;;;;;4972573;28;20026;-76
2022/02/02 08:41:32;;;;;;;9.25;3.70;;;7.90;99.90;;;;;;4977225;28;20030;-75
2022/02/02 08:44:09;;;;;;;8.63;4.07;;;7.90;99.90;;;;;;4977709;28;20046;-75
2022/02/02 08:46:39;;;;;;;8.05;3.08;;;7.80;99.90;;;;;;4977552;28;20019;-76
2022/02/02 08:49:08;;;;;;;9.03;3.10;;;7.80;99.90;;;;;;4976869;28;20027;-75
2022/02/02 08:51:40;;;;;;;4.57;2.22;;;7.70;99.90;;;;;;4971195;28;20018;-76
2022/02/02 09:01:45;;;;;;;9.48;3.40;;;7.70;99.90;;;;;;4974806;28;20399;-75
2022/02/02 09:06:55;;;;;;;14.70;3.78;;;7.70;99.90;;;;;;4985683;28;20091;-74
2022/02/02 09:09:25;;;;;;;6.63;3.13;;;7.80;99.90;;;;;;4987103;28;20027;-76
2022/02/02 09:20:34;;;;;;;17.13;3.35;;;7.90;99.90;;;;;;4977226;28;20613;-76
2022/02/02 09:25:59;;;;;;;10.55;4.07;;;8.10;99.90;;;;;;4977453;28;20414;-76
2022/02/02 09:31:28;;;;;;;9.10;3.50;;;8.20;99.90;;;;;;4976711;28;20033;-76
2022/02/02 09:34:00;;;;;;;9.93;4.07;;;8.30;99.90;;;;;;4977051;28;20023;-76
2022/02/02 09:36:30;;;;;;;18.10;4.00;;;8.30;99.90;;;;;;4978164;28;20054;-76
2022/02/02 09:38:58;;;;;;;11.85;3.22;;;8.30;99.90;;;;;;4978966;28;20027;-76
2022/02/02 09:41:43;;;;;;;10.63;3.22;;;8.30;99.90;;;;;;4980161;28;20074;-76
2022/02/02 09:44:12;;;;;;;14.27;4.30;;;8.20;99.90;;;;;;4976894;28;20502;-76
2022/02/02 09:49:57;;;;;;;10.63;2.55;;;8.30;99.90;;;;;;4979561;28;20039;-76
2022/02/02 09:52:09;;;;;;;13.88;3.05;;;8.40;99.90;;;;;;4966627;28;20078;-76
2022/02/02 10:00:32;;;;;;;7.20;3.30;;;8.50;99.90;;;;;;4984577;28;20057;-77
2022/02/02 10:05:30;;;;;;;16.20;3.15;;;8.60;99.90;;;;;;4986937;28;20064;-74
2022/02/02 10:11:08;;;;;;;16.13;3.65;;;8.70;99.90;;;;;;4976263;28;20093;-75
2022/02/02 10:14:03;;;;;;;11.05;3.38;;;8.80;99.90;;;;;;4978381;28;20025;-75
2022/02/02 10:16:42;;;;;;;16.25;3.13;;;8.90;99.90;;;;;;4979594;28;20081;-76
2022/02/02 10:19:23;;;;;;;14.65;4.65;;;9.00;99.90;;;;;;4975427;28;20058;-76
2022/02/02 10:21:49;;;;;;;13.73;4.53;;;8.90;99.90;;;;;;4975256;28;20026;-76
2022/02/02 10:24:15;;;;;;;10.32;3.35;;;8.90;99.90;;;;;;4976520;28;20039;-77
2022/02/02 10:26:46;;;;;;;14.65;3.75;;;8.90;99.90;;;;;;4974781;28;20030;-76
2022/02/02 10:29:16;;;;;;;9.38;2.90;;;8.80;99.90;;;;;;4973004;28;20041;-75
2022/02/02 10:31:46;;;;;;;13.70;2.50;;;8.90;99.90;;;;;;4974546;28;20511;-75
2022/02/02 10:34:16;;;;;;;9.63;3.00;;;9.00;99.90;;;;;;4982641;28;20085;-73
2022/02/02 10:36:42;;;;;;;8.27;2.70;;;9.10;99.90;;;;;;4999523;28;20023;-75
2022/02/02 10:39:16;;;;;;;8.98;2.42;;;9.10;99.90;;;;;;4988462;28;20310;-76
2022/02/02 10:41:57;;;;;;;6.65;2.47;;;9.00;99.90;;;;;;4981411;28;20035;-75
2022/02/02 10:44:38;;;;;;;14.88;4.05;;;8.90;99.90;;;;;;4976117;28;20031;-74
2022/02/02 10:47:26;;;;;;;13.80;3.20;;;8.90;99.90;;;;;;4984906;28;20031;-74
2022/02/02 10:50:01;;;;;;;11.50;3.58;;;8.90;99.90;;;;;;4986634;28;20034;-78
2022/02/02 10:52:42;;;;;;;10.68;4.30;;;9.00;99.90;;;;;;4988966;28;20019;-78
2022/02/02 10:58:09;;;;;;;14.10;3.47;;;9.20;99.90;;;;;;4991746;28;20022;-79
2022/02/02 11:00:51;;;;;;;11.85;3.67;;;9.20;99.90;;;;;;4992162;28;20023;-74
2022/02/02 11:08:47;;;;;;;12.10;2.78;;;9.20;99.90;;;;;;4988118;28;20082;-76
2022/02/02 11:11:13;;;;;;;16.48;3.22;;;9.20;99.90;;;;;;4981990;28;20030;-76
2022/02/02 11:13:42;;;;;;;12.32;3.08;;;9.30;99.90;;;;;;4984455;28;20023;-78
2022/02/02 11:16:13;;;;;;;12.32;3.05;;;9.30;99.90;;;;;;4988132;28;20030;-76
2022/02/02 11:18:41;;;;;;;;;;;9.30;99.90;;;;;;4985647;28;20031;-79
2022/02/02 11:21:09;;;;;;;10.52;2.17;;;9.40;99.90;;;;;;5008520;28;19910;-79
2022/02/02 11:24:19;;;;;;;10.18;2.97;;;9.50;99.90;;;;;;4985595;28;20471;-76
2022/02/02 11:26:48;;;;;;;11.98;3.10;;;9.50;99.90;;;;;;4973312;28;20043;-76
2022/02/02 11:29:40;;;;;;;11.45;3.10;;;9.60;99.90;;;;;;4996965;28;20077;-76
2022/02/02 11:32:10;;;;;;;8.95;3.15;;;9.70;99.90;;;;;;4996946;28;20038;-77
2022/02/02 11:34:36;;;;;;;14.70;3.13;;;9.60;99.90;;;;;;4993135;28;20061;-80
2022/02/02 11:37:04;;;;;;;14.40;3.60;;;9.50;99.90;;;;;;4987290;28;20038;-77
2022/02/02 11:39:37;;;;;;;12.23;3.53;;;9.60;99.90;;;;;;4985456;28;20061;-74
2022/02/02 11:42:14;;;;;;;19.52;3.83;;;9.60;99.90;;;;;;4966409;28;20395;-74
2022/02/02 11:44:51;;;;;;;14.48;2.65;;;9.60;99.90;;;;;;4972445;28;20057;-74
2022/02/02 11:47:41;;;;;;;10.85;3.53;;;9.80;99.90;;;;;;4971292;28;20486;-73
2022/02/02 11:50:08;;;;;;;15.18;3.00;;;9.80;99.90;;;;;;4972822;28;20063;-73
2022/02/02 11:52:46;;;;;;;7.82;2.80;;;9.80;99.90;;;;;;4974076;28;20019;-73
2022/02/02 11:55:12;;;;;;;8.68;3.63;;;9.70;99.90;;;;;;4974268;28;20062;-73
2022/02/02 11:58:23;;;;;;;17.35;3.90;;;9.50;99.90;;;;;;4973025;28;20050;-73
2022/02/02 12:01:06;;;;;;;19.85;4.28;;;9.50;99.90;;;;;;4962886;28;20090;-73
2022/02/02 12:04:06;;;;;;;20.45;4.97;;;9.40;99.90;;;;;;4971643;28;20081;-72
2022/02/02 12:09:48;;;;;;;9.82;3.17;;;9.40;99.90;;;;;;4972011;28;20042;-73
2022/02/02 12:21:25;;;;;;;9.30;2.22;;;10.10;99.90;;;;;;4977355;28;20042;-74
2022/02/02 12:48:59;;;;;;;12.73;3.72;;;9.30;99.90;;;;;;4980641;28;20518;-74
2022/02/02 12:56:57;;;;;;;14.15;3.72;;;9.00;99.90;;;;;;4978011;28;20054;-73
2022/02/02 13:02:14;;;;;;;11.05;3.10;;;8.80;99.90;;;;;;4980064;28;20647;-74
2022/02/02 13:04:42;;;;;;;12.13;4.15;;;8.80;99.90;;;;;;4981810;28;20035;-73
2022/02/02 13:07:08;;;;;;;13.02;3.70;;;8.80;99.90;;;;;;4978733;28;20030;-74
2022/02/02 13:09:34;;;;;;;10.70;3.15;;;8.90;99.90;;;;;;4978373;28;20019;-73
2022/02/02 13:12:20;;;;;;;14.57;3.70;;;8.90;99.90;;;;;;4977863;28;20038;-73
2022/02/02 13:15:12;;;;;;;3.92;2.17;;;9.00;99.90;;;;;;4977443;28;20025;-73
2022/02/02 13:26:27;;;;;;;5.90;2.47;;;8.90;99.90;;;;;;4978290;28;20023;-74
2022/02/02 13:29:15;;;;;;;5.18;1.20;;;8.90;99.90;;;;;;4982154;28;20121;-73
2022/02/02 13:45:44;;;;;;;7.70;1.20;;;8.70;99.90;;;;;;4981330;28;20031;-73
2022/02/02 13:59:55;;;;;;;6.30;1.98;;;9.20;99.90;;;;;;4983070;28;20034;-73
2022/02/02 14:03:45;;;;;;;4.07;1.48;;;9.20;99.90;;;;;;4972447;28;20036;-74
2022/02/02 14:05:39;;;;;;;6.72;1.88;;;9.20;99.90;;;;;;4982236;28;20031;-75
2022/02/02 14:10:30;;;;;;;5.35;1.70;;;9.10;99.90;;;;;;4981979;28;20085;-74
2022/02/02 14:32:06;;;;;;;10.98;3.78;;;8.80;99.90;;;;;;4945702;28;20031;-74
2022/02/02 14:34:32;;;;;;;14.20;3.53;;;8.90;99.90;;;;;;4979578;28;20144;-73
2022/02/02 14:36:57;;;;;;;10.10;3.08;;;8.90;99.90;;;;;;4988184;28;20465;-73
2022/02/02 14:39:29;;;;;;;8.00;2.17;;;9.00;99.90;;;;;;4989088;28;20089;-73
2022/02/02 14:42:09;;;;;;;5.90;2.70;;;8.90;99.90;;;;;;4987125;28;20118;-74
2022/02/02 14:44:38;;;;;;;8.10;1.93;;;9.00;99.90;;;;;;4986873;28;20091;-74
2022/02/02 14:47:11;;;;;;;6.30;3.00;;;8.90;99.90;;;;;;4986196;28;20286;-73
2022/02/02 15:23:45;;;;;;;13.40;3.15;;;8.70;99.90;;;;;;4970644;28;20030;-74
2022/02/02 15:27:54;;;;;;;10.27;3.58;;;8.50;99.90;;;;;;4974503;28;20070;-75
2022/02/02 15:32:54;;;;;;;10.32;2.33;;;8.40;99.90;;;;;;4975240;28;20593;-75
2022/02/02 15:35:21;;;;;;;7.22;2.75;;;8.30;99.90;;;;;;4975028;28;20073;-77
2022/02/02 15:38:06;;;;;;;7.57;2.47;;;8.30;99.90;;;;;;4967168;28;20023;-73
2022/02/02 15:40:41;;;;;;;7.07;2.22;;;8.20;99.90;;;;;;4973274;28;20031;-74
2022/02/02 15:58:52;;;;;;;5.22;2.15;;;7.90;99.90;;;;;;4994675;23;20042;-74
2022/02/02 16:04:07;;;;;;;5.43;1.67;;;7.80;99.90;;;;;;4970517;28;20033;-73
2022/02/02 16:06:33;;;;;;;6.32;2.22;;;7.80;99.90;;;;;;4963627;28;20208;-75
2022/02/02 16:09:20;;;;;;;4.78;2.03;;;7.80;99.90;;;;;;4968437;28;20042;-73
2022/02/02 16:11:53;;;;;;;3.10;2.10;;;7.80;99.90;;;;;;4968488;28;20030;-72
2022/02/02 16:14:26;;;;;;;5.80;2.00;;;7.80;99.90;;;;;;4972718;28;20391;-72
2022/02/02 16:36:10;;;;;;;4.22;2.15;;;7.50;99.90;;;;;;4971678;28;20372;-73
2022/02/02 16:38:39;;;;;;;3.70;1.90;;;7.50;99.90;;;;;;4967024;28;20027;-74
2022/02/02 16:42:54;;;;;;;5.65;2.30;;;7.60;99.90;;;;;;4986147;28;20030;-75
2022/02/02 16:43:50;;;;;;;3.95;2.17;;;7.60;99.90;;;;;;4989436;28;20074;-73
2022/02/02 16:46:16;;;;;;;3.38;1.63;;;7.50;99.90;;;;;;4992889;28;20022;-74
2022/02/02 16:48:41;;;;;;;5.30;2.47;;;7.60;99.90;;;;;;4996517;28;20041;-74
2022/02/02 16:51:08;;;;;;;5.40;1.75;;;7.60;99.90;;;;;;4984524;28;20587;-73
2022/02/02 16:53:44;;;;;;;5.25;1.65;;;7.60;99.90;;;;;;4974526;28;20098;-73
2022/02/02 16:56:21;;;;;;;5.40;1.85;;;7.70;99.90;;;;;;4965050;28;20034;-73
2022/02/02 17:27:49;;;;;;;4.65;3.03;;;7.80;99.90;;;;;;4977426;28;20435;-73
2022/02/02 17:31:59;;;;;;;3.33;2.05;;;7.70;99.90;;;;;;4979484;28;20043;-73
2022/02/02 17:37:08;;;;;;;3.40;2.38;;;7.60;99.90;;;;;;4978116;28;20065;-75
2022/02/02 17:39:47;;;;;;;3.50;2.03;;;7.60;99.90;;;;;;4984852;28;20030;-74
2022/02/02 17:42:38;;;;;;;6.85;2.25;;;7.50;99.90;;;;;;4990300;28;20074;-74
2022/02/02 17:45:28;;;;;;;5.82;2.70;;;7.50;99.90;;;;;;4981570;28;20089;-75
2022/02/02 18:02:05;;;;;;;5.20;2.40;;;7.40;99.90;;;;;;4969212;28;20033;-74
2022/02/02 18:21:01;;;;;;;4.38;2.65;;;7.50;99.90;;;;;;4972735;28;20074;-73
2022/02/02 18:26:26;;;;;;;6.40;2.90;;;7.40;99.90;;;;;;4954072;28;20445;-77
2022/02/02 18:49:19;;;;;;;2.15;1.95;;;7.60;99.90;;;;;;4978372;28;20042;-73
2022/02/02 18:54:37;;;;;;;5.45;2.00;;;7.60;99.90;;;;;;4970850;28;20023;-74
2022/02/02 18:57:17;;;;;;;2.40;2.00;;;7.60;99.90;;;;;;4980018;28;20039;-74
2022/02/02 19:00:06;;;;;;;2.42;1.83;;;7.50;99.90;;;;;;4977951;28;20034;-75
2022/02/02 19:37:38;;;;;;;2.72;2.05;;;6.70;99.90;;;;;;4971509;28;20545;-74
2022/02/02 19:40:18;;;;;;;4.07;2.05;;;6.70;99.90;;;;;;4976378;28;20071;-73
2022/02/02 19:56:43;;;;;;;3.03;2.67;;;6.30;99.90;;;;;;4973482;28;20065;-75
2022/02/02 20:07:00;;;;;;;3.13;2.72;;;6.20;99.90;;;;;;4966337;28;20019;-74
2022/02/02 20:12:12;;;;;;;4.55;4.13;;;6.10;99.90;;;;;;4972838;28;20023;-73
2022/02/02 20:14:37;;;;;;;5.90;4.07;;;6.00;99.90;;;;;;4973057;28;20015;-74
2022/02/02 20:17:04;;;;;;;4.15;3.75;;;5.90;99.90;;;;;;4966772;28;20015;-75
2022/02/02 20:19:30;;;;;;;6.97;5.10;;;5.90;99.90;;;;;;4972657;28;20030;-74
2022/02/02 20:21:57;;;;;;;9.40;5.25;;;5.90;99.90;;;;;;4967260;28;20376;-75
2022/02/02 20:24:27;;;;;;;6.22;4.88;;;5.90;99.90;;;;;;4971231;28;20019;-75
2022/02/02 20:26:53;;;;;;;8.57;5.45;;;5.90;99.90;;;;;;4969731;28;20031;-73
2022/02/02 20:29:18;;;;;;;5.60;4.80;;;5.90;99.90;;;;;;4974283;28;20023;-75
2022/02/02 20:31:44;;;;;;;6.05;4.38;;;6.00;99.90;;;;;;4975272;28;20026;-75
2022/02/02 20:34:11;;;;;;;8.02;4.85;;;6.00;99.90;;;;;;4976773;28;20030;-75
2022/02/02 20:36:39;;;;;;;7.15;4.55;;;6.10;99.90;;;;;;4988581;28;20037;-73
2022/02/02 20:39:11;;;;;;;9.32;5.25;;;6.10;99.90;;;;;;4995954;28;20027;-74
2022/02/02 20:41:38;;;;;;;6.03;5.43;;;6.10;99.90;;;;;;4995781;28;20030;-74
2022/02/02 20:44:14;;;;;;;7.57;5.03;;;6.20;99.90;;;;;;4992961;28;20031;-76
2022/02/02 21:08:22;;;;;;;9.60;5.38;;;6.30;99.90;;;;;;4992890;28;20066;-73
2022/02/02 21:10:49;;;;;;;6.40;5.10;;;6.20;99.90;;;;;;4972456;28;20647;-74
2022/02/02 21:15:59;;;;;;;7.47;5.25;;;6.10;99.90;;;;;;4976905;28;20030;-75
2022/02/02 21:18:32;;;;;;;6.47;5.38;;;6.00;99.90;;;;;;4979746;28;20419;-75
2022/02/02 21:21:02;;;;;;;5.80;4.82;;;6.00;99.90;;;;;;4972784;28;20106;-74
2022/02/02 21:26:16;;;;;;;6.15;4.82;;;6.10;99.90;;;;;;4972153;28;20082;-74
2022/02/02 21:28:41;;;;;;;8.00;4.78;;;6.10;99.90;;;;;;4965828;28;20070;-73
2022/02/02 21:31:07;;;;;;;5.25;4.43;;;6.20;99.90;;;;;;4971745;28;20019;-74
2022/02/02 21:33:36;;;;;;;6.68;5.07;;;6.30;99.90;;;;;;4974379;28;20023;-73
2022/02/02 21:36:02;;;;;;;6.60;4.97;;;6.40;99.90;;;;;;4980358;28;20027;-72
2022/02/02 21:38:38;;;;;;;7.20;4.90;;;6.40;99.90;;;;;;4981041;28;20101;-74
2022/02/02 21:41:04;;;;;;;5.75;4.10;;;6.40;99.90;;;;;;4977866;28;20057;-72
2022/02/02 21:43:30;;;;;;;5.03;4.25;;;6.40;99.90;;;;;;4978375;28;20475;-72
2022/02/02 21:45:56;;;;;;;5.78;4.85;;;6.50;99.90;;;;;;4979575;28;20063;-72
2022/02/02 21:48:22;;;;;;;5.60;5.00;;;6.50;99.90;;;;;;4992363;28;20023;-73
2022/02/02 21:50:53;;;;;;;6.65;4.72;;;6.50;99.90;;;;;;4996622;28;20094;-72
2022/02/02 21:53:19;;;;;;;8.00;5.43;;;6.50;99.90;;;;;;4996996;28;20310;-72
2022/02/02 21:55:45;;;;;;;6.20;5.60;;;6.50;99.90;;;;;;4988581;28;20082;-73
2022/02/02 21:58:11;;;;;;;6.28;5.30;;;6.60;99.90;;;;;;4998274;23;20077;-77
2022/02/02 22:00:39;;;;;;;12.15;10.70;;;6.60;99.90;;;;;;5002050;28;20039;-75
2022/02/02 22:03:07;;;;;;;6.15;5.00;;;6.80;99.90;;;;;;4999991;28;20031;-77
2022/02/02 22:05:33;;;;;;;6.93;5.40;;;6.80;99.90;;;;;;5000274;28;20030;-78
2022/02/02 22:07:58;;;;;;;6.63;4.35;;;6.80;99.90;;;;;;4988748;28;20030;-78
2022/02/02 22:10:24;;;;;;;5.60;4.93;;;6.80;99.90;;;;;;4982628;28;20122;-78
2022/02/02 22:12:50;;;;;;;5.72;4.97;;;6.70;99.90;;;;;;4976887;28;20039;-76
2022/02/02 22:15:22;;;;;;;9.77;6.53;;;6.60;99.90;;;;;;4990083;28;20027;-77
2022/02/02 22:17:49;;;;;;;8.25;5.88;;;6.70;99.90;;;;;;4979981;28;20058;-76
2022/02/02 22:20:17;;;;;;;8.05;5.30;;;6.70;99.90;;;;;;4975955;28;20016;-77
2022/02/02 22:22:43;;;;;;;8.48;5.50;;;6.70;99.90;;;;;;4993936;28;20013;-77
2022/02/02 22:25:10;;;;;;;9.23;6.47;;;6.70;99.90;;;;;;4976691;28;20023;-77
2022/02/02 22:27:36;;;;;;;8.88;6.35;;;6.70;99.90;;;;;;4978799;28;20026;-77
2022/02/02 22:30:05;;;;;;;8.23;6.10;;;6.70;99.90;;;;;;4986328;28;20026;-77
2022/02/02 22:32:31;;;;;;;8.18;5.47;;;6.70;99.90;;;;;;4980346;28;20049;-77
2022/02/02 22:34:57;;;;;;;8.77;5.65;;;6.70;99.90;;;;;;4998753;28;20035;-77
2022/02/02 22:37:23;;;;;;;5.30;4.80;;;6.90;99.90;;;;;;4983121;28;20019;-77
2022/02/02 22:39:51;;;;;;;8.18;4.95;;;6.90;99.90;;;;;;4984924;28;20100;-76
2022/02/02 22:42:21;;;;;;;8.55;6.32;;;7.00;99.90;;;;;;4980664;28;20085;-76
2022/02/02 22:44:47;;;;;;;9.05;5.65;;;7.10;99.90;;;;;;4977673;28;20054;-77
2022/02/02 22:47:14;;;;;;;9.68;6.93;;;7.00;99.90;;;;;;4977782;28;20456;-77
2022/02/02 22:49:45;;;;;;;10.38;6.65;;;6.90;99.90;;;;;;4972037;28;20023;-77
2022/02/02 22:52:11;;;;;;;;;;;6.90;99.90;;;;;;4971861;28;20088;-78
2022/02/02 22:54:39;;;;;;;7.30;6.07;;;6.80;99.90;;;;;;4970979;28;19945;-77
2022/02/02 22:57:05;;;;;;;9.07;6.68;;;6.80;99.90;;;;;;4987021;28;20069;-77
2022/02/02 22:59:31;;;;;;;11.23;7.63;;;6.80;99.90;;;;;;4985599;28;20038;-77
2022/02/02 23:02:04;;;;;;;8.60;7.57;;;6.80;99.90;;;;;;4983619;28;20026;-77
2022/02/02 23:04:29;;;;;;;14.25;8.90;;;6.80;99.90;;;;;;4986622;28;20026;-77
2022/02/02 23:07:01;;;;;;;10.88;8.45;;;6.80;99.90;;;;;;4979943;28;20438;-77
2022/02/02 23:09:27;;;;;;;15.13;8.50;;;6.80;99.90;;;;;;4976395;28;20070;-78
2022/02/02 23:11:52;;;;;;;9.88;7.75;;;6.80;99.90;;;;;;4977627;28;20042;-78
2022/02/02 23:14:23;;;;;;;9.48;7.82;;;6.80;99.90;;;;;;4979791;28;20034;-77
2022/02/02 23:16:50;;;;;;;10.40;7.25;;;6.80;99.90;;;;;;4985381;28;20390;-77
2022/02/02 23:19:16;;;;;;;10.68;7.80;;;6.80;99.90;;;;;;4971504;28;20071;-77
2022/02/02 23:21:44;;;;;;;13.55;7.97;;;6.80;99.90;;;;;;4976063;28;20019;-78
2022/02/02 23:24:12;;;;;;;9.55;6.85;;;6.80;99.90;;;;;;4976733;28;20466;-77
2022/02/02 23:26:39;;;;;;;10.82;7.28;;;7.00;99.90;;;;;;4974284;28;20030;-75